createdAt,value
2022-09-15T00:01:10.705Z,99347.09
2022-09-15T00:03:37.621Z,99323.81
2022-09-15T00:06:05.106Z,99339.84
2022-09-15T00:08:31.400Z,99338.37
2022-09-15T00:11:06.256Z,99317.56
2022-09-15T00:13:33.701Z,99311.69
2022-09-15T00:16:00.395Z,99305.25
2022-09-15T00:18:26.686Z,99284.31
2022-09-15T00:20:52.924Z,99300.16
2022-09-15T00:23:19.450Z,99302.16
2022-09-15T00:25:48.197Z,99300.19
2022-09-15T00:28:15.599Z,99308.75
2022-09-15T00:30:43.824Z,99313.19
2022-09-15T00:33:10.601Z,99295.88
2022-09-15T00:35:38.990Z,99310.72
2022-09-15T00:38:06.314Z,99304.81
2022-09-15T00:40:32.665Z,99313.56
2022-09-15T00:42:58.981Z,99307.09
2022-09-15T00:45:26.035Z,99315.34
2022-09-15T00:47:52.686Z,99309.41
2022-09-15T00:50:20.383Z,99291.63
2022-09-15T00:52:55.383Z,99306.44
2022-09-15T00:55:30.544Z,99295.22
2022-09-15T00:58:04.699Z,99300.37
2022-09-15T01:00:30.942Z,99299.34
2022-09-15T01:02:57.862Z,99292.28
2022-09-15T01:05:27.918Z,99295.56
2022-09-15T01:08:09.156Z,99289.47
2022-09-15T01:10:38.261Z,99290.28
2022-09-15T01:13:07.643Z,99283.38
2022-09-15T01:15:49.063Z,99261.28
2022-09-15T01:18:26.400Z,99278.59
2022-09-15T01:21:19.865Z,99275.16
2022-09-15T01:23:52.591Z,99274.66
2022-09-15T01:26:25.376Z,99272.00
2022-09-15T01:29:21.731Z,99270.34
2022-09-15T01:32:10.244Z,99281.72
2022-09-15T01:34:45.294Z,99290.28
2022-09-15T01:37:15.708Z,99288.34
2022-09-15T01:39:45.858Z,99291.63
2022-09-15T01:42:14.936Z,99295.09
2022-09-15T01:44:45.607Z,99292.28
2022-09-15T01:47:14.049Z,99280.06
2022-09-15T01:49:46.351Z,99282.38
2022-09-15T01:52:17.100Z,99282.38
2022-09-15T01:54:48.859Z,99278.78
2022-09-15T01:57:21.444Z,99259.66
2022-09-15T01:59:49.274Z,99255.03
2022-09-15T02:02:24.770Z,99252.22
2022-09-15T02:05:11.330Z,99247.78
2022-09-15T02:08:05.404Z,99223.37
2022-09-15T02:10:44.411Z,99233.75
2022-09-15T02:13:42.804Z,99214.50
2022-09-15T02:16:24.362Z,99222.06
2022-09-15T02:19:09.669Z,99223.06
2022-09-15T02:21:55.358Z,99218.75
2022-09-15T02:24:30.116Z,99226.84
2022-09-15T02:26:58.033Z,99206.91
2022-09-15T02:29:27.036Z,99191.06
2022-09-15T02:31:56.407Z,99175.59
2022-09-15T02:34:30.653Z,99168.63
2022-09-15T02:36:56.939Z,99170.44
2022-09-15T02:39:27.912Z,99169.16
2022-09-15T02:41:54.227Z,99169.00
2022-09-15T02:44:20.734Z,99167.50
2022-09-15T02:46:47.224Z,99145.72
2022-09-15T02:49:14.189Z,99156.56
2022-09-15T02:51:40.537Z,99156.56
2022-09-15T02:54:08.075Z,99145.22
2022-09-15T02:56:34.304Z,99136.31
2022-09-15T02:59:00.554Z,99130.88
2022-09-15T03:01:31.722Z,99112.75
2022-09-15T03:03:58.393Z,99116.53
2022-09-15T03:06:25.550Z,99213.63
2022-09-15T03:08:54.660Z,99198.63
2022-09-15T03:11:22.885Z,99228.16
2022-09-15T03:13:53.411Z,99234.56
2022-09-15T03:16:20.269Z,99249.06
2022-09-15T03:18:46.756Z,99242.81
2022-09-15T03:21:14.654Z,99234.38
2022-09-15T03:23:42.079Z,99232.56
2022-09-15T03:26:09.456Z,99226.16
2022-09-15T03:28:37.349Z,99237.38
2022-09-15T03:31:04.827Z,99219.72
2022-09-15T03:33:31.399Z,99222.31
2022-09-15T03:35:58.299Z,99214.94
2022-09-15T03:38:24.959Z,99223.66
2022-09-15T03:41:07.663Z,99212.25
2022-09-15T03:43:34.961Z,99212.44
2022-09-15T03:46:01.513Z,99223.34
2022-09-15T03:48:29.932Z,99224.66
2022-09-15T03:50:56.511Z,99216.91
2022-09-15T03:53:22.996Z,99206.19
2022-09-15T03:55:49.816Z,99212.81
2022-09-15T03:58:17.780Z,99196.94
2022-09-15T04:00:44.477Z,99209.03
2022-09-15T04:03:11.154Z,99213.78
2022-09-15T04:05:37.449Z,99216.59
2022-09-15T04:08:03.691Z,99219.75
2022-09-15T04:10:30.399Z,99220.56
2022-09-15T04:12:57.235Z,99233.59
2022-09-15T04:15:23.594Z,99231.94
2022-09-15T04:17:50.143Z,99226.84
2022-09-15T04:20:17.208Z,99227.81
2022-09-15T04:22:44.622Z,99224.53
2022-09-15T04:25:11.189Z,99208.22
2022-09-15T04:27:38.609Z,99211.03
2022-09-15T04:30:06.455Z,99210.38
2022-09-15T04:32:33.001Z,99207.87
2022-09-15T04:34:59.312Z,99212.19
2022-09-15T04:37:25.620Z,99212.19
2022-09-15T04:39:52.303Z,99209.69
2022-09-15T04:42:20.899Z,99224.34
2022-09-15T04:44:47.143Z,99218.59
2022-09-15T04:47:13.762Z,99213.16
2022-09-15T04:49:40.160Z,99233.59
2022-09-15T04:52:09.574Z,99239.84
2022-09-15T04:54:36.762Z,99251.91
2022-09-15T04:57:03.083Z,99242.66
2022-09-15T04:59:29.396Z,99243.50
2022-09-15T05:01:56.181Z,99244.47
2022-09-15T05:04:22.513Z,99225.66
2022-09-15T05:06:48.845Z,99240.00
2022-09-15T05:09:15.380Z,99215.59
2022-09-15T05:11:41.669Z,99241.94
2022-09-15T05:14:09.557Z,99242.09
2022-09-15T05:16:36.266Z,99228.53
2022-09-15T05:19:05.445Z,99241.25
2022-09-15T05:21:32.326Z,99248.63
2022-09-15T05:23:58.838Z,99235.56
2022-09-15T05:26:27.102Z,99242.59
2022-09-15T05:28:53.853Z,99253.78
2022-09-15T05:31:25.452Z,99255.56
2022-09-15T05:33:53.066Z,99253.87
2022-09-15T05:36:21.239Z,99241.56
2022-09-15T05:38:47.805Z,99229.06
2022-09-15T05:41:18.452Z,99228.47
2022-09-15T05:43:46.790Z,99225.88
2022-09-15T05:46:14.027Z,99225.19
2022-09-15T05:48:40.335Z,99224.75
2022-09-15T05:51:06.931Z,99234.19
2022-09-15T05:53:34.973Z,99229.44
2022-09-15T05:56:04.251Z,99233.84
2022-09-15T05:58:31.913Z,99237.88
2022-09-15T06:01:04.483Z,99243.72
2022-09-15T06:03:31.310Z,99235.41
2022-09-15T06:06:01.832Z,99246.22
2022-09-15T06:08:33.555Z,99261.66
2022-09-15T06:11:15.589Z,99249.69
2022-09-15T06:13:47.110Z,99254.37
2022-09-15T06:16:19.556Z,99273.56
2022-09-15T06:18:47.149Z,99280.88
2022-09-15T06:21:16.703Z,99286.06
2022-09-15T06:23:46.077Z,99297.94
2022-09-15T06:26:18.694Z,99302.34
2022-09-15T06:28:53.393Z,99295.22
2022-09-15T06:31:20.935Z,99295.94
2022-09-15T06:33:51.414Z,99306.25
2022-09-15T06:36:19.027Z,99297.56
2022-09-15T06:38:46.955Z,99309.38
2022-09-15T06:41:13.910Z,99311.41
2022-09-15T06:43:40.320Z,99309.09
2022-09-15T06:46:13.570Z,99311.94
2022-09-15T06:48:41.151Z,99315.97
2022-09-15T06:51:09.282Z,99322.63
2022-09-15T06:53:38.036Z,99321.06
2022-09-15T06:56:10.161Z,99299.72
2022-09-15T06:58:38.842Z,99306.50
2022-09-15T07:01:10.624Z,99296.12
2022-09-15T07:03:39.038Z,99290.47
2022-09-15T07:06:06.975Z,99298.94
2022-09-15T07:08:33.271Z,99278.44
2022-09-15T07:10:59.867Z,99312.53
2022-09-15T07:13:26.110Z,99320.19
2022-09-15T07:15:54.066Z,99311.50
2022-09-15T07:18:21.158Z,99314.94
2022-09-15T07:20:47.398Z,99324.88
2022-09-15T07:23:14.011Z,99331.44
2022-09-15T07:25:44.045Z,99337.03
2022-09-15T07:28:14.598Z,99332.31
2022-09-15T07:30:41.950Z,99347.63
2022-09-15T07:33:10.152Z,99342.28
2022-09-15T07:35:41.814Z,99348.88
2022-09-15T07:38:08.465Z,99351.75
2022-09-15T07:40:34.717Z,99355.50
2022-09-15T07:43:01.016Z,99363.69
2022-09-15T07:45:27.602Z,99362.47
2022-09-15T07:47:54.810Z,99374.34
2022-09-15T07:50:21.094Z,99371.88
2022-09-15T07:52:47.749Z,99376.63
2022-09-15T07:55:16.923Z,99385.81
2022-09-15T07:58:04.168Z,99370.44
2022-09-15T08:00:33.045Z,99376.16
2022-09-15T08:02:59.609Z,99390.97
2022-09-15T08:05:29.073Z,99399.22
2022-09-15T08:07:56.615Z,99389.53
2022-09-15T08:10:25.172Z,99394.44
2022-09-15T08:12:52.339Z,99394.44
2022-09-15T08:15:18.793Z,99388.28
2022-09-15T08:17:45.298Z,99412.28
2022-09-15T08:20:11.758Z,99381.34
2022-09-15T08:22:37.984Z,99400.19
2022-09-15T08:25:04.808Z,99400.72
2022-09-15T08:27:31.098Z,99395.19
2022-09-15T08:29:57.349Z,99382.84
2022-09-15T08:32:23.986Z,99384.56
2022-09-15T08:34:50.233Z,99392.91
2022-09-15T08:37:16.857Z,99393.28
2022-09-15T08:39:43.481Z,99393.75
2022-09-15T08:42:15.192Z,99388.47
2022-09-15T08:45:00.612Z,99393.69
2022-09-15T08:47:36.394Z,99385.34
2022-09-15T08:50:11.702Z,99383.75
2022-09-15T08:52:44.458Z,99392.53
2022-09-15T08:55:17.961Z,99388.50
2022-09-15T08:57:45.054Z,99369.97
2022-09-15T09:00:16.410Z,99393.66
2022-09-15T09:02:42.629Z,99377.47
2022-09-15T09:05:34.590Z,99365.16
2022-09-15T09:08:25.298Z,99369.16
2022-09-15T09:10:54.577Z,99363.94
2022-09-15T09:13:41.143Z,99367.44
2022-09-15T09:16:32.058Z,99367.38
2022-09-15T09:19:01.030Z,99366.69
2022-09-15T09:21:31.534Z,99362.38
2022-09-15T09:24:14.884Z,99375.37
2022-09-15T09:26:42.026Z,99373.16
2022-09-15T09:29:15.056Z,99361.47
2022-09-15T09:31:42.000Z,99364.50
2022-09-15T09:34:33.971Z,99369.28
2022-09-15T09:37:09.020Z,99361.13
2022-09-15T09:39:35.293Z,99363.41
2022-09-15T09:42:02.772Z,99375.47
2022-09-15T09:44:32.310Z,99370.78
2022-09-15T09:46:59.631Z,99376.63
2022-09-15T09:49:38.950Z,99370.56
2022-09-15T09:52:05.230Z,99347.16
2022-09-15T09:54:33.158Z,99352.75
2022-09-15T09:57:16.712Z,99359.75
2022-09-15T09:59:45.824Z,99351.59
2022-09-15T10:02:12.154Z,99337.13
2022-09-15T10:04:40.218Z,99341.75
2022-09-15T10:07:08.037Z,99345.19
2022-09-15T10:09:34.570Z,99328.44
2022-09-15T10:12:03.752Z,99324.44
2022-09-15T10:14:41.409Z,99316.19
2022-09-15T10:17:14.093Z,99303.66
2022-09-15T10:19:53.025Z,99307.09
2022-09-15T10:22:31.659Z,99307.63
2022-09-15T10:25:00.382Z,99321.03
2022-09-15T10:27:29.929Z,99336.72
2022-09-15T10:29:59.947Z,99325.88
2022-09-15T10:32:31.148Z,99303.66
2022-09-15T10:35:03.630Z,99314.28
2022-09-15T10:37:51.447Z,99272.16
2022-09-15T10:40:44.878Z,99314.28
2022-09-15T10:43:14.785Z,99302.94
2022-09-15T10:45:48.869Z,99316.41
2022-09-15T10:48:31.622Z,99307.59
2022-09-15T10:51:06.973Z,99313.03
2022-09-15T10:53:57.599Z,99307.50
2022-09-15T10:56:34.600Z,99306.59
2022-09-15T10:59:19.772Z,99309.88
2022-09-15T11:02:10.682Z,99305.44
2022-09-15T11:04:41.521Z,99312.94
2022-09-15T11:07:15.799Z,99308.37
2022-09-15T11:10:02.121Z,99303.25
2022-09-15T11:12:59.176Z,99311.78
2022-09-15T11:15:48.423Z,99297.81
2022-09-15T11:18:45.866Z,99306.72
2022-09-15T11:21:21.771Z,99291.81
2022-09-15T11:24:25.516Z,99291.50
2022-09-15T11:27:00.516Z,99296.88
2022-09-15T11:30:04.160Z,99286.75
2022-09-15T11:32:38.978Z,99269.63
2022-09-15T11:35:29.158Z,99274.63
2022-09-15T11:38:25.518Z,99276.53
2022-09-15T11:40:56.944Z,99259.72
2022-09-15T11:43:53.679Z,99256.09
2022-09-15T11:46:30.911Z,99255.06
2022-09-15T11:49:03.246Z,99250.47
2022-09-15T11:51:33.773Z,99260.19
2022-09-15T11:54:11.908Z,99262.78
2022-09-15T11:56:44.477Z,99258.06
2022-09-15T11:59:28.731Z,99266.47
2022-09-15T12:02:09.327Z,99265.44
2022-09-15T12:04:43.004Z,99274.50
2022-09-15T12:07:14.660Z,99252.03
2022-09-15T12:09:41.474Z,99249.97
2022-09-15T12:12:12.531Z,99248.97
2022-09-15T12:14:41.870Z,99230.72
2022-09-15T12:17:23.467Z,99245.97
2022-09-15T12:20:00.256Z,99236.97
2022-09-15T12:22:33.789Z,99224.50
2022-09-15T12:25:10.524Z,99241.34
2022-09-15T12:27:37.035Z,99242.31
2022-09-15T12:30:04.523Z,99234.34
2022-09-15T12:32:33.194Z,99229.22
2022-09-15T12:35:16.802Z,99225.19
2022-09-15T12:37:47.976Z,99226.19
2022-09-15T12:40:36.262Z,99224.41
2022-09-15T12:43:26.638Z,99208.50
2022-09-15T12:45:57.178Z,99200.00
2022-09-15T12:48:26.944Z,99206.41
2022-09-15T12:51:00.100Z,99191.63
2022-09-15T12:56:06.893Z,99216.47
2022-09-15T12:59:05.903Z,99211.47
2022-09-15T13:01:47.804Z,99206.47
2022-09-15T13:04:26.912Z,99197.09
2022-09-15T13:07:15.389Z,99181.69
2022-09-15T13:09:55.823Z,99184.44
2022-09-15T13:12:26.278Z,99191.78
2022-09-15T13:14:53.850Z,99186.91
2022-09-15T13:17:25.356Z,99191.50
2022-09-15T13:19:54.420Z,99195.56
2022-09-15T13:22:27.319Z,99185.00
2022-09-15T13:24:59.207Z,99192.03
2022-09-15T13:27:48.203Z,99185.78
2022-09-15T13:30:20.539Z,99186.06
2022-09-15T13:33:00.981Z,99177.66
2022-09-15T13:35:50.008Z,99170.63
2022-09-15T13:38:31.373Z,99166.34
2022-09-15T13:41:16.528Z,99163.16
2022-09-15T13:44:17.823Z,99148.16
2022-09-15T13:47:19.781Z,99139.03
2022-09-15T13:49:52.078Z,99136.00
2022-09-15T13:52:18.506Z,99131.31
2022-09-15T13:55:12.587Z,99133.88
2022-09-15T14:00:48.309Z,99136.38
2022-09-15T14:03:18.310Z,99126.50
2022-09-15T14:05:44.992Z,99128.09
2022-09-15T14:08:17.821Z,99131.44
2022-09-15T14:10:54.735Z,99142.16
2022-09-15T14:13:22.721Z,99154.03
2022-09-15T14:16:11.865Z,99156.63
2022-09-15T14:18:43.697Z,99157.25
2022-09-15T14:21:19.367Z,99138.22
2022-09-15T14:23:50.771Z,99127.78
2022-09-15T14:26:19.546Z,99125.31
2022-09-15T14:28:51.355Z,99125.19
2022-09-15T14:31:27.494Z,99107.41
2022-09-15T14:33:53.988Z,99114.91
2022-09-15T14:36:31.975Z,99114.94
2022-09-15T14:39:08.740Z,99100.19
2022-09-15T14:41:36.501Z,99106.97
2022-09-15T14:45:52.466Z,99113.75
2022-09-15T14:47:15.924Z,99110.53
2022-09-15T14:49:42.212Z,99108.34
2022-09-15T14:52:25.272Z,99107.31
2022-09-15T14:54:56.202Z,99106.25
2022-09-15T14:57:26.527Z,99104.88
2022-09-15T15:00:00.128Z,99105.66
2022-09-15T15:02:29.291Z,99086.91
2022-09-15T15:04:59.777Z,99088.41
2022-09-15T15:07:28.008Z,99103.31
2022-09-15T15:09:58.358Z,99104.59
2022-09-15T15:12:28.360Z,99102.47
2022-09-15T15:14:56.272Z,99101.50
2022-09-15T15:17:30.062Z,99104.38
2022-09-15T15:20:22.837Z,99099.78
2022-09-15T15:23:03.705Z,99097.28
2022-09-15T15:25:34.590Z,99089.69
2022-09-15T15:28:01.262Z,99089.16
2022-09-15T15:30:30.879Z,99074.06
2022-09-15T15:33:24.527Z,99077.28
2022-09-15T15:36:02.434Z,99071.84
2022-09-15T15:38:29.167Z,99075.34
2022-09-15T15:41:04.596Z,99059.53
2022-09-15T15:43:31.780Z,99077.69
2022-09-15T15:46:04.129Z,99087.94
2022-09-15T15:48:37.777Z,99082.78
2022-09-15T15:51:05.781Z,99085.44
2022-09-15T15:53:32.303Z,99099.50
2022-09-15T15:56:00.159Z,99101.59
2022-09-15T15:58:26.432Z,99110.38
2022-09-15T16:00:56.353Z,99101.63
2022-09-15T16:03:24.074Z,99118.91
2022-09-15T16:05:52.172Z,99120.28
2022-09-15T16:08:34.941Z,99125.47
2022-09-15T16:11:02.408Z,99119.56
2022-09-15T16:13:29.284Z,99131.22
2022-09-15T16:15:57.823Z,99132.63
2022-09-15T16:18:24.849Z,99129.53
2022-09-15T16:20:51.200Z,99132.34
2022-09-15T16:23:19.558Z,99129.47
2022-09-15T16:25:54.964Z,99138.53
2022-09-15T16:28:21.457Z,99140.72
2022-09-15T16:30:48.077Z,99148.69
2022-09-15T16:33:18.990Z,99140.69
2022-09-15T16:35:55.422Z,99130.63
2022-09-15T16:38:25.457Z,99146.22
2022-09-15T16:40:52.030Z,99142.53
2022-09-15T16:43:23.617Z,99127.91
2022-09-15T16:45:50.874Z,99142.47
2022-09-15T16:48:17.381Z,99141.41
2022-09-15T16:53:31.036Z,99116.78
2022-09-15T16:55:57.292Z,99119.06
2022-09-15T16:58:23.896Z,99120.06
2022-09-15T17:00:52.523Z,99111.88
2022-09-15T17:03:20.515Z,99100.34
2022-09-15T17:05:54.894Z,99125.53
2022-09-15T17:08:24.008Z,99127.78
2022-09-15T17:10:50.607Z,99147.56
2022-09-15T17:13:20.365Z,99141.91
2022-09-15T17:15:47.156Z,99166.12
2022-09-15T17:18:15.468Z,99153.44
2022-09-15T17:20:43.525Z,99133.41
2022-09-15T17:23:25.235Z,99138.13
2022-09-15T17:25:58.407Z,99124.84
2022-09-15T17:28:27.246Z,99111.94
2022-09-15T17:30:59.023Z,99104.75
2022-09-15T17:33:26.086Z,99108.84
2022-09-15T17:35:52.594Z,99103.94
2022-09-15T17:38:20.450Z,99104.31
2022-09-15T17:40:47.974Z,99104.31
2022-09-15T17:43:16.157Z,99101.87
2022-09-15T17:45:42.991Z,99097.94
2022-09-15T17:48:09.922Z,99106.94
2022-09-15T17:50:38.098Z,99107.94
2022-09-15T17:53:23.433Z,99112.41
2022-09-15T17:55:50.770Z,99112.16
2022-09-15T17:58:17.427Z,99106.59
2022-09-15T18:00:44.363Z,99116.41
2022-09-15T18:03:33.998Z,99101.75
2022-09-15T18:06:06.295Z,99123.87
2022-09-15T18:08:38.606Z,99128.91
2022-09-15T18:11:06.126Z,99134.78
2022-09-15T18:13:33.495Z,99141.31
2022-09-15T18:16:04.643Z,99130.25
2022-09-15T18:18:31.012Z,99126.53
2022-09-15T18:20:58.025Z,99124.06
2022-09-15T18:23:26.640Z,99121.34
2022-09-15T18:25:52.876Z,99131.87
2022-09-15T18:28:19.720Z,99136.38
2022-09-15T18:30:48.140Z,99132.44
2022-09-15T18:33:17.049Z,99132.81
2022-09-15T18:35:44.088Z,99121.97
2022-09-15T18:38:11.314Z,99104.72
2022-09-15T18:40:37.655Z,99114.97
2022-09-15T18:43:04.569Z,99124.91
2022-09-15T18:45:30.834Z,99100.72
2022-09-15T18:47:57.105Z,99123.19
2022-09-15T18:50:25.229Z,99123.41
2022-09-15T18:52:51.526Z,99118.19
2022-09-15T18:55:19.452Z,99112.72
2022-09-15T18:57:47.205Z,99094.87
2022-09-15T19:00:16.843Z,99095.81
2022-09-15T19:02:43.515Z,99086.78
2022-09-15T19:05:16.823Z,99087.53
2022-09-15T19:07:43.965Z,99100.13
2022-09-15T19:10:11.568Z,99094.37
2022-09-15T19:12:38.324Z,99095.56
2022-09-15T19:15:10.648Z,99093.28
2022-09-15T19:17:38.301Z,99096.31
2022-09-15T19:20:06.659Z,99087.06
2022-09-15T19:22:33.462Z,99073.56
2022-09-15T19:25:00.040Z,99066.81
2022-09-15T19:27:26.223Z,99068.75
2022-09-15T19:29:52.450Z,99094.84
2022-09-15T19:32:19.647Z,99098.91
2022-09-15T19:34:47.015Z,99089.47
2022-09-15T19:37:18.701Z,99097.97
2022-09-15T19:39:46.491Z,99088.56
2022-09-15T19:42:12.896Z,99083.16
2022-09-15T19:44:39.275Z,99101.53
2022-09-15T19:47:06.285Z,99119.50
2022-09-15T19:49:32.814Z,99132.75
2022-09-15T19:51:59.050Z,99116.31
2022-09-15T19:54:27.771Z,99119.31
2022-09-15T19:56:54.412Z,99117.50
2022-09-15T19:59:20.943Z,99123.44
2022-09-15T20:01:47.544Z,99125.88
2022-09-15T20:04:14.847Z,99131.38
2022-09-15T20:06:41.341Z,99153.38
2022-09-15T20:09:07.659Z,99156.00
2022-09-15T20:11:34.966Z,99152.34
2022-09-15T20:14:01.506Z,99141.75
2022-09-15T20:16:28.208Z,99147.06
2022-09-15T20:18:55.206Z,99148.53
2022-09-15T20:21:45.832Z,99137.56
2022-09-15T20:24:11.305Z,99136.38
2022-09-15T20:26:37.528Z,99143.78
2022-09-15T20:29:03.975Z,99143.78
2022-09-15T20:31:32.949Z,99144.97
2022-09-15T20:33:59.831Z,99139.84
2022-09-15T20:36:29.474Z,99140.03
2022-09-15T20:38:56.626Z,99136.75
2022-09-15T20:41:25.132Z,99144.97
2022-09-15T20:43:51.796Z,99150.59
2022-09-15T20:46:20.509Z,99148.44
2022-09-15T20:48:47.242Z,99148.91
2022-09-15T20:51:18.762Z,99134.25
2022-09-15T20:53:47.632Z,99152.34
2022-09-15T20:56:15.113Z,99160.28
2022-09-15T20:58:41.420Z,99148.25
2022-09-15T21:01:10.860Z,99158.75
2022-09-15T21:03:39.004Z,99162.78
2022-09-15T21:06:11.062Z,99151.44
2022-09-15T21:08:37.844Z,99167.06
2022-09-15T21:11:05.252Z,99166.88
2022-09-15T21:13:35.612Z,99178.66
2022-09-15T21:16:03.018Z,99161.78
2022-09-15T21:18:33.863Z,99172.38
2022-09-15T21:21:10.179Z,99168.88
2022-09-15T21:23:40.738Z,99185.75
2022-09-15T21:26:17.750Z,99177.91
2022-09-15T21:28:44.932Z,99184.50
2022-09-15T21:31:17.110Z,99189.78
2022-09-15T21:33:45.010Z,99172.59
2022-09-15T21:36:14.605Z,99185.97
2022-09-15T21:38:42.944Z,99177.47
2022-09-15T21:41:11.799Z,99179.13
2022-09-15T21:43:39.291Z,99181.03
2022-09-15T21:46:08.425Z,99172.81
2022-09-15T21:48:35.858Z,99174.47
2022-09-15T21:51:03.889Z,99173.28
2022-09-15T21:53:30.690Z,99178.56
2022-09-15T21:56:06.570Z,99176.38
2022-09-15T21:58:39.077Z,99179.19
2022-09-15T22:01:11.456Z,99181.78
2022-09-15T22:03:41.770Z,99178.75
2022-09-15T22:06:12.237Z,99182.41
2022-09-15T22:08:39.788Z,99179.91
2022-09-15T22:11:07.215Z,99169.25
2022-09-15T22:13:39.207Z,99184.41
2022-09-15T22:16:08.177Z,99192.50
2022-09-15T22:18:38.176Z,99196.19
2022-09-15T22:21:05.327Z,99193.53
2022-09-15T22:23:32.077Z,99204.47
2022-09-15T22:26:05.938Z,99209.94
2022-09-15T22:28:32.520Z,99222.00
2022-09-15T22:31:00.312Z,99214.72
2022-09-15T22:33:26.963Z,99210.78
2022-09-15T22:35:53.570Z,99208.47
2022-09-15T22:38:19.937Z,99199.81
2022-09-15T22:40:46.355Z,99197.72
2022-09-15T22:43:12.943Z,99210.97
2022-09-15T22:45:39.301Z,99216.25
2022-09-15T22:48:05.833Z,99220.81
2022-09-15T22:50:32.395Z,99233.25
2022-09-15T22:52:58.729Z,99243.00
2022-09-15T22:55:25.565Z,99237.88
2022-09-15T22:57:52.172Z,99227.19
2022-09-15T23:00:18.421Z,99225.53
2022-09-15T23:02:44.754Z,99222.59
2022-09-15T23:05:11.267Z,99219.97
2022-09-15T23:07:37.516Z,99249.53
2022-09-15T23:10:05.878Z,99258.12
2022-09-15T23:12:32.605Z,99257.00
2022-09-15T23:14:58.900Z,99266.69
2022-09-15T23:17:25.771Z,99263.06
2022-09-15T23:19:52.306Z,99260.56
2022-09-15T23:22:18.574Z,99251.44
2022-09-15T23:24:44.895Z,99265.88
2022-09-15T23:27:11.422Z,99259.31
2022-09-15T23:29:37.650Z,99265.78
2022-09-15T23:32:04.015Z,99268.87
2022-09-15T23:34:30.576Z,99259.53
2022-09-15T23:36:57.140Z,99269.56
2022-09-15T23:39:23.490Z,99277.81
2022-09-15T23:41:50.046Z,99285.09
2022-09-15T23:44:16.345Z,99302.75
2022-09-15T23:46:42.707Z,99283.19
2022-09-15T23:49:09.421Z,99295.53
2022-09-15T23:51:35.859Z,99296.72
2022-09-15T23:54:03.759Z,99300.34
2022-09-15T23:56:31.751Z,99291.63
2022-09-15T23:58:58.064Z,99311.28
